createdAt,value
2022-10-13T06:30:53.853Z,94.10
2022-10-13T06:33:23.997Z,96.00
2022-10-13T06:35:52.288Z,95.70
2022-10-13T06:38:19.992Z,94.40
2022-10-13T06:40:48.325Z,93.90
2022-10-13T06:43:15.254Z,94.00
2022-10-13T06:45:42.092Z,93.90
2022-10-13T06:48:08.981Z,94.30
2022-10-13T06:50:40.659Z,94.00
2022-10-13T06:53:09.511Z,93.90
2022-10-13T06:55:36.441Z,93.70
2022-10-13T06:58:03.175Z,93.60
2022-10-13T07:00:30.089Z,93.50
2022-10-13T07:02:56.978Z,92.80
2022-10-13T07:05:23.755Z,93.10
2022-10-13T07:07:53.948Z,92.50
2022-10-13T07:10:21.209Z,92.80
2022-10-13T07:12:48.189Z,92.80
2022-10-13T07:15:15.127Z,92.40
2022-10-13T07:17:41.956Z,92.30
2022-10-13T07:20:09.284Z,92.00
2022-10-13T07:22:36.182Z,91.90
2022-10-13T07:25:03.195Z,91.80
2022-10-13T07:27:29.935Z,91.60
2022-10-13T07:29:56.802Z,91.50
2022-10-13T07:32:23.657Z,91.50
2022-10-13T07:34:53.389Z,91.50
2022-10-13T07:37:20.464Z,91.40
2022-10-13T07:39:47.667Z,91.30
2022-10-13T07:42:15.172Z,91.20
2022-10-13T07:44:42.030Z,91.10
2022-10-13T07:47:08.896Z,91.10
2022-10-13T07:49:36.109Z,91.00
2022-10-13T07:52:04.203Z,90.70
2022-10-13T07:54:31.565Z,92.10
2022-10-13T07:56:58.368Z,91.10
2022-10-13T07:59:25.934Z,90.80
2022-10-13T08:01:52.934Z,90.70
2022-10-13T08:04:19.954Z,90.50
2022-10-13T08:06:46.762Z,90.10
2022-10-13T08:09:14.489Z,90.10
2022-10-13T08:11:41.307Z,90.00
2022-10-13T08:14:08.201Z,90.10
2022-10-13T08:16:35.092Z,90.10
2022-10-13T08:19:01.899Z,89.50
2022-10-13T08:24:17.731Z,89.60
2022-10-13T08:26:46.325Z,89.70
2022-10-13T08:29:22.012Z,89.70
2022-10-13T08:31:52.331Z,89.30
2022-10-13T08:34:19.969Z,89.40
2022-10-13T08:36:47.323Z,89.40
2022-10-13T08:39:14.219Z,89.20
2022-10-13T08:41:46.423Z,88.20
2022-10-13T08:47:28.903Z,87.50
2022-10-13T08:50:00.683Z,87.40
2022-10-13T08:52:43.349Z,86.90
2022-10-13T08:55:24.649Z,86.30
2022-10-13T08:57:52.291Z,86.10
2022-10-13T09:00:24.898Z,85.60
2022-10-13T09:02:52.743Z,85.80
2022-10-13T09:05:37.470Z,85.80
2022-10-13T09:08:14.900Z,85.90
2022-10-13T09:10:49.911Z,85.30
2022-10-13T09:13:19.747Z,84.00
2022-10-13T09:15:50.290Z,83.20
2022-10-13T09:18:17.421Z,83.30
2022-10-13T09:20:44.353Z,83.30
2022-10-13T09:23:23.061Z,82.70
2022-10-13T09:25:52.193Z,83.60
2022-10-13T09:28:29.865Z,83.60
2022-10-13T09:31:30.280Z,83.60
2022-10-13T09:34:09.211Z,83.90
2022-10-13T09:36:37.865Z,83.90
2022-10-13T09:39:15.991Z,83.70
2022-10-13T09:41:44.687Z,81.40
2022-10-13T09:44:42.481Z,81.60
2022-10-13T09:47:20.062Z,81.60
2022-10-13T09:49:57.714Z,81.40
2022-10-13T09:52:25.273Z,81.70
2022-10-13T09:54:56.233Z,82.30
2022-10-13T09:57:34.915Z,79.50
2022-10-13T10:00:25.946Z,78.90
2022-10-13T10:03:02.077Z,79.20
2022-10-13T10:05:34.754Z,79.90
2022-10-13T10:08:11.359Z,79.50
2022-10-13T10:10:41.088Z,79.10
2022-10-13T10:13:13.144Z,79.20
2022-10-13T10:15:54.872Z,77.60
2022-10-13T10:18:38.964Z,77.90
2022-10-13T10:21:31.449Z,78.00
2022-10-13T10:24:20.372Z,77.50
2022-10-13T10:26:59.469Z,77.40
2022-10-13T10:29:41.882Z,77.70
2022-10-13T10:32:27.547Z,77.00
2022-10-13T10:35:03.191Z,77.30
2022-10-13T10:37:58.389Z,76.80
2022-10-13T10:40:51.225Z,76.30
2022-10-13T10:43:32.810Z,76.00
2022-10-13T10:46:00.386Z,76.60
2022-10-13T10:48:35.247Z,75.80
2022-10-13T10:51:04.737Z,76.70
2022-10-13T10:53:45.881Z,76.60
2022-10-13T10:56:34.912Z,76.60
2022-10-13T10:59:53.208Z,76.60
2022-10-13T11:03:07.575Z,76.40
2022-10-13T11:05:59.528Z,76.00
2022-10-13T11:08:42.103Z,76.10
2022-10-13T11:11:25.024Z,75.40
2022-10-13T11:14:05.232Z,75.60
2022-10-13T11:16:32.027Z,75.10
2022-10-13T11:19:06.177Z,76.80
2022-10-13T11:21:54.641Z,75.60
2022-10-13T11:24:33.708Z,75.60
2022-10-13T11:27:10.631Z,77.30
2022-10-13T11:29:49.182Z,81.10
2022-10-13T11:32:28.238Z,79.90
2022-10-13T11:35:02.104Z,79.20
2022-10-13T11:38:06.027Z,78.60
2022-10-13T11:41:14.647Z,78.50
2022-10-13T11:43:46.444Z,77.90
2022-10-13T11:46:24.788Z,77.70
2022-10-13T11:48:57.439Z,76.60
2022-10-13T11:51:32.773Z,77.20
2022-10-13T11:54:27.257Z,78.90
2022-10-13T11:56:56.883Z,76.70
2022-10-13T11:59:34.295Z,76.90
2022-10-13T12:02:10.077Z,76.90
2022-10-13T12:04:39.736Z,76.40
2022-10-13T12:07:15.396Z,76.80
2022-10-13T12:09:53.550Z,77.10
2022-10-13T12:12:23.780Z,76.70
2022-10-13T12:14:58.669Z,76.40
2022-10-13T12:17:28.450Z,76.30
2022-10-13T12:20:00.586Z,77.50
2022-10-13T12:22:29.255Z,77.50
2022-10-13T12:25:01.630Z,78.20
2022-10-13T12:27:32.706Z,77.70
2022-10-13T12:30:01.478Z,77.90
2022-10-13T12:32:30.871Z,78.00
2022-10-13T12:35:21.095Z,77.90
2022-10-13T12:37:48.705Z,77.00
2022-10-13T12:40:19.429Z,77.20
2022-10-13T12:42:47.444Z,77.50
2022-10-13T12:45:20.133Z,77.50
2022-10-13T12:47:48.835Z,77.90
2022-10-13T12:50:30.442Z,77.70
2022-10-13T12:53:06.502Z,77.20
2022-10-13T12:55:34.188Z,77.20
2022-10-13T12:58:03.066Z,77.60
2022-10-13T13:00:31.175Z,77.50
2022-10-13T13:02:58.008Z,78.30
2022-10-13T13:05:42.284Z,77.60
2022-10-13T13:08:26.087Z,77.70
2022-10-13T13:11:04.441Z,77.20
2022-10-13T13:13:31.428Z,76.90
2022-10-13T13:16:19.317Z,77.20
2022-10-13T13:18:48.260Z,77.30
2022-10-13T13:21:17.948Z,77.90
2022-10-13T13:23:51.109Z,77.40
2022-10-13T13:26:23.064Z,77.50
2022-10-13T13:28:55.182Z,77.40
2022-10-13T13:31:26.277Z,75.80
2022-10-13T13:33:53.177Z,75.40
2022-10-13T13:36:23.878Z,74.90
2022-10-13T13:38:54.854Z,75.20
2022-10-13T13:41:22.347Z,75.90
2022-10-13T13:43:49.596Z,75.90
2022-10-13T13:46:19.400Z,75.70
2022-10-13T13:48:46.278Z,75.40
2022-10-13T13:51:13.436Z,75.80
2022-10-13T13:53:40.682Z,75.00
2022-10-13T13:56:13.564Z,75.40
2022-10-13T13:58:40.336Z,75.60
2022-10-13T14:01:07.161Z,75.50
2022-10-13T14:03:34.043Z,76.10
2022-10-13T14:06:00.825Z,76.10
2022-10-13T14:08:32.030Z,76.20
2022-10-13T14:10:58.871Z,75.40
2022-10-13T14:13:25.754Z,76.10
2022-10-13T14:16:03.058Z,76.80
2022-10-13T14:18:30.807Z,76.20
2022-10-13T14:21:00.476Z,76.20
2022-10-13T14:23:27.583Z,75.80
2022-10-13T14:25:54.398Z,76.00
2022-10-13T14:28:24.868Z,76.30
2022-10-13T14:30:52.146Z,76.30
2022-10-13T14:33:19.700Z,75.90
2022-10-13T14:35:46.996Z,75.60
2022-10-13T14:38:16.328Z,76.10
2022-10-13T14:40:44.464Z,75.60
2022-10-13T14:43:11.203Z,75.50
2022-10-13T14:45:38.007Z,75.60
2022-10-13T14:48:05.951Z,75.40
2022-10-13T14:50:34.234Z,75.40
2022-10-13T14:53:01.073Z,75.50
2022-10-13T14:55:27.842Z,75.80
2022-10-13T14:57:54.741Z,75.90
2022-10-13T15:00:21.537Z,75.80
2022-10-13T15:02:48.359Z,76.00
2022-10-13T15:05:15.230Z,76.10
2022-10-13T15:07:42.080Z,76.80
2022-10-13T15:10:09.351Z,77.30
2022-10-13T15:12:36.204Z,77.10
2022-10-13T15:15:03.808Z,77.30
2022-10-13T15:17:31.597Z,77.50
2022-10-13T15:19:59.388Z,77.40
2022-10-13T15:22:26.349Z,77.50
2022-10-13T15:24:53.256Z,77.30
2022-10-13T15:27:20.054Z,77.80
2022-10-13T15:29:46.803Z,78.40
2022-10-13T15:32:20.279Z,78.40
2022-10-13T15:34:54.422Z,78.30
2022-10-13T15:37:21.269Z,78.30
2022-10-13T15:39:50.994Z,78.50
2022-10-13T15:42:21.707Z,78.60
2022-10-13T15:45:08.844Z,79.00
2022-10-13T15:47:36.398Z,79.10
2022-10-13T15:50:03.650Z,79.60
2022-10-13T15:52:34.649Z,79.40
2022-10-13T15:55:02.049Z,79.50
2022-10-13T15:57:30.509Z,80.30
2022-10-13T15:59:57.417Z,80.70
2022-10-13T16:02:24.262Z,81.00
2022-10-13T16:04:51.676Z,81.50
2022-10-13T16:07:18.576Z,82.00
2022-10-13T16:09:45.527Z,82.00
2022-10-13T16:12:12.370Z,82.50
2022-10-13T16:14:41.785Z,83.00
2022-10-13T16:17:08.632Z,83.20
2022-10-13T16:19:35.485Z,83.30
2022-10-13T16:22:02.250Z,83.30
2022-10-13T16:24:29.324Z,83.20
2022-10-13T16:26:56.231Z,83.80
2022-10-13T16:29:24.238Z,83.40
2022-10-13T16:31:51.032Z,83.80
2022-10-13T16:34:17.896Z,84.10
2022-10-13T16:36:44.659Z,84.40
2022-10-13T16:39:11.770Z,84.80
2022-10-13T16:41:39.325Z,84.60
2022-10-13T16:44:06.619Z,85.20
2022-10-13T16:46:33.779Z,85.00
2022-10-13T16:49:01.072Z,84.90
2022-10-13T16:51:29.719Z,85.20
2022-10-13T16:54:02.967Z,85.70
2022-10-13T16:56:31.304Z,85.50
2022-10-13T16:59:00.199Z,85.20
2022-10-13T17:01:28.273Z,84.70
2022-10-13T17:03:55.671Z,84.70
2022-10-13T17:06:27.026Z,84.90
2022-10-13T17:08:55.480Z,85.20
2022-10-13T17:11:25.964Z,85.80
2022-10-13T17:13:53.129Z,86.20
2022-10-13T17:16:20.071Z,86.90
2022-10-13T17:18:46.961Z,87.20
2022-10-13T17:21:16.741Z,86.80
2022-10-13T17:23:48.404Z,87.30
2022-10-13T17:26:17.092Z,86.90
2022-10-13T17:28:45.274Z,86.80
2022-10-13T17:31:18.276Z,86.90
2022-10-13T17:33:48.394Z,87.40
2022-10-13T17:36:18.304Z,87.60
2022-10-13T17:38:46.374Z,87.80
2022-10-13T17:41:13.512Z,88.20
2022-10-13T17:43:48.064Z,88.40
2022-10-13T17:46:36.217Z,88.10
2022-10-13T17:49:04.565Z,88.30
2022-10-13T17:51:31.609Z,88.60
2022-10-13T17:53:59.562Z,88.90
2022-10-13T17:56:27.093Z,91.10
2022-10-13T17:58:54.040Z,89.00
2022-10-13T18:01:29.768Z,89.40
2022-10-13T18:03:59.962Z,89.40
2022-10-13T18:06:38.021Z,89.40
2022-10-13T18:09:12.448Z,90.20
2022-10-13T18:11:43.270Z,89.90
2022-10-13T18:14:12.707Z,89.70
2022-10-13T18:16:45.462Z,90.90
2022-10-13T18:19:13.172Z,89.80
2022-10-13T18:21:40.109Z,89.10
2022-10-13T18:24:07.393Z,89.60
2022-10-13T18:26:37.009Z,89.80
2022-10-13T18:29:06.337Z,89.20
2022-10-13T18:31:35.945Z,89.20
2022-10-13T18:34:05.674Z,90.40
2022-10-13T18:36:44.464Z,89.10
2022-10-13T18:39:20.576Z,88.90
2022-10-13T18:41:48.759Z,89.10
2022-10-13T18:44:16.070Z,89.30
2022-10-13T18:46:43.217Z,89.50
2022-10-13T18:49:14.844Z,89.50
2022-10-13T18:51:43.352Z,89.20
2022-10-13T18:54:10.324Z,89.30
2022-10-13T18:56:37.513Z,89.30
2022-10-13T18:59:05.649Z,89.10
2022-10-13T19:01:34.495Z,88.80
2022-10-13T19:04:01.459Z,88.70
2022-10-13T19:06:31.853Z,89.30
2022-10-13T19:09:01.203Z,88.80
2022-10-13T19:11:29.289Z,88.60
2022-10-13T19:13:57.757Z,88.80
2022-10-13T19:16:26.529Z,88.80
2022-10-13T19:18:53.470Z,89.20
2022-10-13T19:21:22.049Z,88.90
2022-10-13T19:23:49.634Z,89.00
2022-10-13T19:26:23.756Z,89.10
2022-10-13T19:28:55.045Z,89.30
2022-10-13T19:31:24.633Z,89.70
2022-10-13T19:33:53.611Z,88.90
2022-10-13T19:36:27.435Z,89.50
2022-10-13T19:38:55.905Z,89.70
2022-10-13T19:41:23.846Z,89.60
2022-10-13T19:43:51.289Z,89.50
2022-10-13T19:46:19.485Z,89.70
2022-10-13T19:48:47.106Z,90.00
2022-10-13T19:51:14.598Z,90.40
2022-10-13T19:53:42.608Z,90.40
2022-10-13T19:56:18.502Z,90.80
2022-10-13T19:58:45.298Z,90.90
2022-10-13T20:01:12.104Z,90.70
2022-10-13T20:03:38.868Z,90.80
2022-10-13T20:06:09.355Z,90.60
2022-10-13T20:08:38.408Z,90.60
2022-10-13T20:11:10.289Z,90.30
2022-10-13T20:13:37.287Z,90.40
2022-10-13T20:16:10.456Z,90.70
2022-10-13T20:18:37.674Z,91.10
2022-10-13T20:21:06.099Z,91.20
2022-10-13T20:23:33.373Z,91.10
2022-10-13T20:26:10.516Z,90.80
2022-10-13T20:28:42.893Z,90.80
2022-10-13T20:31:12.771Z,90.70
2022-10-13T20:33:40.281Z,90.70
